createdAt,value
2022-11-30T00:01:37.499Z,11.50
2022-11-30T00:04:04.790Z,11.80
2022-11-30T00:06:32.015Z,12.60
2022-11-30T00:08:59.491Z,13.93
2022-11-30T00:11:28.112Z,10.73
2022-11-30T00:13:56.889Z,14.43
2022-11-30T00:16:24.169Z,14.03
2022-11-30T00:22:03.314Z,12.30
2022-11-30T00:24:30.520Z,12.70
2022-11-30T00:26:57.802Z,15.33
2022-11-30T00:29:26.478Z,8.27
2022-11-30T00:31:53.676Z,16.27
2022-11-30T00:34:20.911Z,15.80
2022-11-30T00:36:48.156Z,18.13
2022-11-30T00:39:15.409Z,13.30
2022-11-30T00:41:42.960Z,14.87
2022-11-30T00:44:10.254Z,12.57
2022-11-30T00:46:39.001Z,15.60
2022-11-30T00:49:06.245Z,12.47
2022-11-30T00:51:33.627Z,10.63
2022-11-30T00:57:48.221Z,13.60
2022-11-30T01:00:15.790Z,12.57
2022-11-30T01:02:44.746Z,11.07
2022-11-30T01:05:12.255Z,12.23
2022-11-30T01:07:39.707Z,13.10
2022-11-30T01:10:07.657Z,12.10
2022-11-30T01:15:24.266Z,14.83
2022-11-30T01:17:52.923Z,11.07
2022-11-30T01:20:20.152Z,10.93
2022-11-30T01:22:52.496Z,12.80
2022-11-30T01:25:40.855Z,12.67
2022-11-30T01:28:28.721Z,12.17
2022-11-30T01:30:59.276Z,12.50
2022-11-30T01:33:27.983Z,14.07
2022-11-30T01:36:02.288Z,10.90
2022-11-30T01:38:32.266Z,11.27
2022-11-30T01:40:59.494Z,12.90
2022-11-30T01:43:37.330Z,14.63
2022-11-30T01:46:04.733Z,11.80
2022-11-30T01:48:33.807Z,13.93
2022-11-30T01:51:01.048Z,14.60
2022-11-30T01:53:49.962Z,14.23
2022-11-30T01:56:17.596Z,12.03
2022-11-30T01:58:45.276Z,12.33
2022-11-30T02:01:12.563Z,7.87
2022-11-30T02:03:44.593Z,14.37
2022-11-30T02:06:11.963Z,11.67
2022-11-30T02:08:39.335Z,10.40
2022-11-30T02:11:08.783Z,10.27
2022-11-30T02:13:41.054Z,10.87
2022-11-30T02:16:15.366Z,11.83
2022-11-30T02:18:50.487Z,12.57
2022-11-30T02:21:23.534Z,9.87
2022-11-30T02:24:12.490Z,12.37
2022-11-30T02:27:11.973Z,10.83
2022-11-30T02:29:42.093Z,11.50
2022-11-30T02:32:11.002Z,15.03
2022-11-30T02:34:39.130Z,11.40
2022-11-30T02:37:07.806Z,9.93
2022-11-30T02:39:34.992Z,11.33
2022-11-30T02:42:02.737Z,9.20
2022-11-30T02:44:30.313Z,11.23
2022-11-30T02:47:08.486Z,9.43
2022-11-30T02:49:38.402Z,9.43
2022-11-30T02:52:27.195Z,11.20
2022-11-30T02:55:08.042Z,10.10
2022-11-30T02:57:40.627Z,9.60
2022-11-30T03:00:09.293Z,7.87
2022-11-30T03:02:38.236Z,9.37
2022-11-30T03:05:05.986Z,11.17
2022-11-30T03:07:33.384Z,7.93
2022-11-30T03:10:00.669Z,7.87
2022-11-30T03:12:33.358Z,8.97
2022-11-30T03:15:00.696Z,7.43
2022-11-30T03:17:27.929Z,7.90
2022-11-30T03:19:56.636Z,5.77
2022-11-30T03:25:59.383Z,7.13
2022-11-30T03:28:26.741Z,6.80
2022-11-30T03:30:53.987Z,9.83
2022-11-30T03:33:21.335Z,7.57
2022-11-30T03:35:49.953Z,7.47
2022-11-30T03:38:17.346Z,7.43
2022-11-30T03:40:44.674Z,8.30
2022-11-30T03:43:11.855Z,9.10
2022-11-30T03:45:39.401Z,10.87
2022-11-30T03:48:06.829Z,7.20
2022-11-30T03:50:52.661Z,7.13
2022-11-30T03:53:51.764Z,7.40
2022-11-30T03:56:24.334Z,6.90
2022-11-30T03:58:52.042Z,5.70
2022-11-30T04:01:20.276Z,6.63
2022-11-30T04:03:47.611Z,8.20
2022-11-30T04:06:15.366Z,7.10
2022-11-30T04:08:44.346Z,7.73
2022-11-30T04:11:17.639Z,6.17
2022-11-30T04:13:45.254Z,6.90
2022-11-30T04:16:12.533Z,8.63
2022-11-30T04:18:39.840Z,8.20
2022-11-30T04:24:55.645Z,6.67
2022-11-30T04:27:22.886Z,6.60
2022-11-30T04:29:50.228Z,6.70
2022-11-30T04:32:17.451Z,6.97
2022-11-30T04:34:45.160Z,6.17
2022-11-30T04:37:12.726Z,5.93
2022-11-30T04:39:39.950Z,7.60
2022-11-30T04:42:08.568Z,5.87
2022-11-30T04:44:35.788Z,6.47
2022-11-30T04:47:03.005Z,7.57
2022-11-30T04:49:30.254Z,6.77
2022-11-30T04:51:57.440Z,7.23
2022-11-30T04:54:24.696Z,6.40
2022-11-30T04:56:52.238Z,9.87
2022-11-30T04:59:26.136Z,8.63
2022-11-30T05:01:53.418Z,7.33
2022-11-30T05:04:20.777Z,6.10
2022-11-30T05:06:48.115Z,6.90
2022-11-30T05:09:15.446Z,6.40
2022-11-30T05:11:42.668Z,8.10
2022-11-30T05:14:16.424Z,6.83
2022-11-30T05:16:47.821Z,6.17
2022-11-30T05:19:17.919Z,5.63
2022-11-30T05:21:45.882Z,8.97
2022-11-30T05:24:32.836Z,5.97
2022-11-30T05:27:16.627Z,8.10
2022-11-30T05:29:54.183Z,5.73
2022-11-30T05:32:22.749Z,7.90
2022-11-30T05:34:51.641Z,6.93
2022-11-30T05:37:19.441Z,6.40
2022-11-30T05:39:46.865Z,6.27
2022-11-30T05:42:14.164Z,9.93
2022-11-30T05:44:41.373Z,6.47
2022-11-30T05:47:08.731Z,5.97
2022-11-30T05:49:37.387Z,6.23
2022-11-30T05:52:04.687Z,5.90
2022-11-30T05:54:50.369Z,7.00
2022-11-30T05:57:47.987Z,5.90
2022-11-30T06:00:21.413Z,6.73
2022-11-30T06:02:48.758Z,6.70
2022-11-30T06:05:17.574Z,7.10
2022-11-30T06:07:44.929Z,9.40
2022-11-30T06:10:12.911Z,8.77
2022-11-30T06:12:40.429Z,10.33
2022-11-30T06:15:09.030Z,5.27
2022-11-30T06:17:36.625Z,6.97
2022-11-30T06:20:03.997Z,6.40
2022-11-30T06:22:32.888Z,6.13
2022-11-30T06:25:20.580Z,7.73
2022-11-30T06:27:49.375Z,6.50
2022-11-30T06:30:16.633Z,12.80
2022-11-30T06:32:45.531Z,6.70
2022-11-30T06:35:12.786Z,8.73
2022-11-30T06:37:41.590Z,6.37
2022-11-30T06:40:09.818Z,11.43
2022-11-30T06:42:37.793Z,8.77
2022-11-30T06:45:06.001Z,8.20
2022-11-30T06:47:33.328Z,8.97
2022-11-30T06:50:00.958Z,10.00
2022-11-30T06:52:30.529Z,8.13
2022-11-30T06:55:20.637Z,6.47
2022-11-30T06:57:49.460Z,6.73
2022-11-30T07:00:17.397Z,6.10
2022-11-30T07:02:44.610Z,8.23
2022-11-30T07:05:11.890Z,10.37
2022-11-30T07:07:39.132Z,7.80
2022-11-30T07:10:06.954Z,11.27
2022-11-30T07:12:35.497Z,7.43
2022-11-30T07:15:04.348Z,9.30
2022-11-30T07:17:31.540Z,6.93
2022-11-30T07:19:58.785Z,9.80
2022-11-30T07:22:26.094Z,10.87
2022-11-30T07:24:53.315Z,9.80
2022-11-30T07:27:20.577Z,11.73
2022-11-30T07:29:47.798Z,6.53
2022-11-30T07:32:16.526Z,11.90
2022-11-30T07:34:43.777Z,8.03
2022-11-30T07:37:11.042Z,13.00
2022-11-30T07:39:38.301Z,9.50
2022-11-30T07:44:58.729Z,9.97
2022-11-30T07:47:28.028Z,14.30
2022-11-30T07:49:55.249Z,9.83
2022-11-30T07:52:27.379Z,8.07
2022-11-30T07:55:07.884Z,10.20
2022-11-30T07:57:47.749Z,15.80
2022-11-30T08:00:15.596Z,13.20
2022-11-30T08:02:44.535Z,12.43
2022-11-30T08:05:11.840Z,9.30
2022-11-30T08:07:39.108Z,12.80
2022-11-30T08:10:06.836Z,14.47
2022-11-30T08:12:34.078Z,15.57
2022-11-30T08:17:50.010Z,10.07
2022-11-30T08:20:17.597Z,12.63
2022-11-30T08:22:44.781Z,11.70
2022-11-30T08:25:12.044Z,17.53
2022-11-30T08:27:39.230Z,13.23
2022-11-30T08:30:09.012Z,10.67
2022-11-30T08:32:36.228Z,5.40
2022-11-30T08:35:05.153Z,5.57
2022-11-30T08:37:32.345Z,10.43
2022-11-30T08:39:59.618Z,17.47
2022-11-30T08:42:28.387Z,13.90
2022-11-30T08:44:55.668Z,11.07
2022-11-30T08:47:22.977Z,15.77
2022-11-30T08:49:50.241Z,16.53
2022-11-30T08:52:19.161Z,12.63
2022-11-30T08:57:34.571Z,12.47
2022-11-30T09:00:02.177Z,11.77
2022-11-30T09:02:29.856Z,13.90
2022-11-30T09:04:57.157Z,14.60
2022-11-30T09:07:26.060Z,12.10
2022-11-30T09:09:53.938Z,12.23
2022-11-30T09:12:21.252Z,9.60
2022-11-30T09:14:55.639Z,12.33
2022-11-30T09:17:24.816Z,11.77
2022-11-30T09:19:52.230Z,10.53
2022-11-30T09:22:19.531Z,10.57
2022-11-30T09:24:48.284Z,10.73
2022-11-30T09:27:15.865Z,10.10
2022-11-30T09:29:43.077Z,11.27
2022-11-30T09:32:10.347Z,11.10
2022-11-30T09:34:37.614Z,12.43
2022-11-30T09:37:04.914Z,12.60
2022-11-30T09:39:32.440Z,11.80
2022-11-30T09:42:22.625Z,10.87
2022-11-30T09:44:55.049Z,10.47
2022-11-30T09:47:31.915Z,10.73
2022-11-30T09:50:02.815Z,14.13
2022-11-30T09:52:33.814Z,14.50
2022-11-30T09:55:01.784Z,13.90
2022-11-30T09:57:32.164Z,18.43
2022-11-30T09:59:59.979Z,18.20
2022-11-30T10:02:29.149Z,15.30
2022-11-30T10:04:56.607Z,10.90
2022-11-30T10:07:33.316Z,14.13
2022-11-30T10:10:34.285Z,11.23
2022-11-30T10:12:57.109Z,13.00
2022-11-30T10:15:31.604Z,14.80
2022-11-30T10:18:01.723Z,12.40
2022-11-30T10:20:52.793Z,10.77
2022-11-30T10:23:26.538Z,11.27
2022-11-30T10:25:56.223Z,13.37
2022-11-30T10:28:47.962Z,16.57
2022-11-30T10:31:16.182Z,16.27
2022-11-30T10:33:44.668Z,21.47
2022-11-30T10:36:14.224Z,16.63
2022-11-30T10:38:43.069Z,14.07
2022-11-30T10:41:12.829Z,16.10
2022-11-30T10:43:43.944Z,13.87
2022-11-30T10:46:17.357Z,12.30
2022-11-30T10:48:48.620Z,12.33
2022-11-30T10:51:16.051Z,14.30
2022-11-30T10:53:43.355Z,12.93
2022-11-30T10:56:11.771Z,13.17
2022-11-30T10:58:40.237Z,12.00
2022-11-30T11:01:10.415Z,18.30
2022-11-30T11:03:38.531Z,17.00
2022-11-30T11:06:13.384Z,15.83
2022-11-30T11:08:41.260Z,13.97
2022-11-30T11:11:23.387Z,21.10
2022-11-30T11:13:50.676Z,18.37
2022-11-30T11:16:19.310Z,14.70
2022-11-30T11:18:52.801Z,15.30
2022-11-30T11:21:22.068Z,15.07
2022-11-30T11:23:50.836Z,18.40
2022-11-30T11:26:19.259Z,16.57
2022-11-30T11:28:48.152Z,13.43
2022-11-30T11:31:31.298Z,11.03
2022-11-30T11:33:58.565Z,11.67
2022-11-30T11:36:27.030Z,13.13
2022-11-30T11:38:54.269Z,16.57
2022-11-30T11:41:24.659Z,14.80
2022-11-30T11:44:00.404Z,10.60
2022-11-30T11:46:29.189Z,15.13
2022-11-30T11:48:58.155Z,16.40
2022-11-30T11:51:30.514Z,15.13
2022-11-30T11:53:59.248Z,21.87
2022-11-30T11:56:28.085Z,20.00
2022-11-30T11:58:58.593Z,15.67
2022-11-30T12:01:40.648Z,16.20
2022-11-30T12:04:23.073Z,14.03
2022-11-30T12:06:52.597Z,14.67
2022-11-30T12:09:23.084Z,17.23
2022-11-30T12:11:50.464Z,13.23
2022-11-30T12:14:19.445Z,12.97
2022-11-30T12:16:55.728Z,20.00
2022-11-30T12:19:25.892Z,14.40
2022-11-30T12:21:58.223Z,12.93
2022-11-30T12:24:40.395Z,15.93
2022-11-30T12:27:12.844Z,17.97
2022-11-30T12:29:44.136Z,13.10
2022-11-30T12:32:20.783Z,8.27
2022-11-30T12:34:58.224Z,9.30
2022-11-30T12:37:30.489Z,9.77
2022-11-30T12:40:02.806Z,9.40
2022-11-30T12:42:35.544Z,11.40
2022-11-30T12:45:06.669Z,11.63
2022-11-30T12:47:42.796Z,11.70
2022-11-30T12:50:18.813Z,11.20
2022-11-30T12:52:53.317Z,11.20
2022-11-30T12:55:24.779Z,12.73
2022-11-30T12:58:00.472Z,12.17
2022-11-30T13:00:46.637Z,11.83
2022-11-30T13:03:32.806Z,11.63
2022-11-30T13:06:05.670Z,14.97
2022-11-30T13:08:36.298Z,11.03
2022-11-30T13:11:06.620Z,14.27
2022-11-30T13:13:37.558Z,12.27
2022-11-30T13:16:06.543Z,6.73
2022-11-30T13:18:34.180Z,11.73
2022-11-30T13:21:06.983Z,10.00
2022-11-30T13:23:36.380Z,11.53
2022-11-30T13:26:08.701Z,12.50
2022-11-30T13:28:47.365Z,13.80
2022-11-30T13:31:17.670Z,11.83
2022-11-30T13:33:49.195Z,8.13
2022-11-30T13:36:27.104Z,11.53
2022-11-30T13:39:08.903Z,15.47
2022-11-30T13:41:47.077Z,11.93
2022-11-30T13:44:23.236Z,14.93
2022-11-30T13:46:51.255Z,19.37
2022-11-30T13:49:20.894Z,14.43
2022-11-30T13:52:24.310Z,14.27
2022-11-30T14:01:38.460Z,13.03
2022-11-30T14:04:35.951Z,14.30
2022-11-30T14:07:05.682Z,13.13
2022-11-30T14:09:56.002Z,10.93
2022-11-30T14:12:46.022Z,12.83
2022-11-30T14:15:29.748Z,12.27
2022-11-30T14:17:58.141Z,12.80
2022-11-30T14:20:27.447Z,14.30
2022-11-30T14:23:09.468Z,16.37
2022-11-30T14:26:00.478Z,16.03
2022-11-30T14:28:31.652Z,16.47
2022-11-30T14:30:59.689Z,11.37
2022-11-30T14:33:31.372Z,12.40
2022-11-30T14:36:00.754Z,13.07
2022-11-30T14:38:30.690Z,13.40
2022-11-30T14:41:20.515Z,15.83
2022-11-30T14:44:04.866Z,14.23
2022-11-30T14:46:32.382Z,13.00
2022-11-30T14:49:06.666Z,14.30
2022-11-30T14:51:39.560Z,13.90
2022-11-30T14:54:25.599Z,12.20
2022-11-30T14:57:19.036Z,16.73
2022-11-30T14:59:47.684Z,16.30
2022-11-30T15:02:20.444Z,16.83
2022-11-30T15:04:48.148Z,12.57
2022-11-30T15:07:15.933Z,18.17
2022-11-30T15:09:44.496Z,18.97
2022-11-30T15:12:19.817Z,16.03
2022-11-30T15:15:03.187Z,16.37
2022-11-30T15:17:30.515Z,14.77
2022-11-30T15:19:57.939Z,16.20
2022-11-30T15:22:47.092Z,14.70
2022-11-30T15:25:29.187Z,16.77
2022-11-30T15:28:14.983Z,14.10
2022-11-30T15:30:45.670Z,15.37
2022-11-30T15:33:17.760Z,15.37
2022-11-30T15:36:12.409Z,17.80
2022-11-30T15:38:33.775Z,18.00
2022-11-30T15:43:51.460Z,19.80
2022-11-30T15:46:34.450Z,18.13
2022-11-30T15:49:06.378Z,16.63
2022-11-30T15:52:01.336Z,17.70
2022-11-30T15:57:53.474Z,17.87
2022-11-30T16:00:21.501Z,15.80
2022-11-30T16:02:50.711Z,17.03
2022-11-30T16:05:25.585Z,17.90
2022-11-30T16:07:54.244Z,17.97
2022-11-30T16:13:12.806Z,20.83
2022-11-30T16:15:44.244Z,19.67
2022-11-30T16:18:14.396Z,21.63
2022-11-30T16:20:42.107Z,20.80
2022-11-30T16:23:11.574Z,21.83
2022-11-30T16:25:57.553Z,23.27
2022-11-30T16:28:31.974Z,24.27
2022-11-30T16:31:04.553Z,18.70
2022-11-30T16:33:33.378Z,20.50
2022-11-30T16:36:01.705Z,20.50
2022-11-30T16:38:29.291Z,23.30
2022-11-30T16:40:56.531Z,17.47
2022-11-30T16:43:23.985Z,19.30
2022-11-30T16:45:51.419Z,17.37
2022-11-30T16:48:18.780Z,24.10
2022-11-30T16:50:47.758Z,19.73
2022-11-30T16:53:15.317Z,17.30
2022-11-30T16:55:42.712Z,21.27
2022-11-30T16:58:10.345Z,23.00
2022-11-30T17:00:39.096Z,23.43
2022-11-30T17:03:07.912Z,17.53
2022-11-30T17:05:35.463Z,19.77
2022-11-30T17:08:04.493Z,21.33
2022-11-30T17:10:31.844Z,22.47
2022-11-30T17:12:59.032Z,22.90
2022-11-30T17:15:35.583Z,10.93
2022-11-30T17:18:02.846Z,18.67
2022-11-30T17:20:30.240Z,23.80
2022-11-30T17:22:57.820Z,12.33
2022-11-30T17:25:26.843Z,25.33
2022-11-30T17:27:54.073Z,14.87
2022-11-30T17:30:30.553Z,18.20
2022-11-30T17:32:58.149Z,7.97
2022-11-30T17:35:25.693Z,24.03
2022-11-30T17:37:54.452Z,10.00
2022-11-30T17:40:32.146Z,23.47
2022-11-30T17:43:11.580Z,7.97
2022-11-30T17:45:41.835Z,14.47
2022-11-30T17:48:09.252Z,12.60
2022-11-30T17:50:38.603Z,23.93
2022-11-30T17:53:05.948Z,4.33
2022-11-30T17:55:34.794Z,10.13
2022-11-30T17:58:02.170Z,12.27
2022-11-30T18:00:29.520Z,14.50
2022-11-30T18:02:56.837Z,24.03
2022-11-30T18:05:24.162Z,25.27
2022-11-30T18:07:51.414Z,25.20
2022-11-30T18:10:18.701Z,27.33
2022-11-30T18:12:49.519Z,21.33
2022-11-30T18:15:16.983Z,24.73
2022-11-30T18:17:44.233Z,21.37
2022-11-30T18:20:12.173Z,17.73
2022-11-30T18:22:39.444Z,20.00
2022-11-30T18:25:07.187Z,19.53
2022-11-30T18:27:37.619Z,19.43
2022-11-30T18:30:10.105Z,22.53
2022-11-30T18:32:37.779Z,21.87
2022-11-30T18:35:05.293Z,23.70
2022-11-30T18:37:35.494Z,21.13
2022-11-30T18:40:02.754Z,23.20
2022-11-30T18:42:30.140Z,26.77
2022-11-30T18:44:57.440Z,27.43
2022-11-30T18:47:26.118Z,24.37
2022-11-30T18:49:53.465Z,22.40
2022-11-30T18:52:20.771Z,21.77
2022-11-30T18:54:48.385Z,21.27
2022-11-30T18:57:15.966Z,21.73
2022-11-30T18:59:43.215Z,25.83
2022-11-30T19:02:10.771Z,24.00
2022-11-30T19:04:39.510Z,23.83
2022-11-30T19:07:07.064Z,21.93
2022-11-30T19:09:34.374Z,26.60
2022-11-30T19:12:01.756Z,24.57
2022-11-30T19:14:29.131Z,21.07
2022-11-30T19:16:56.526Z,27.30
2022-11-30T19:19:23.804Z,22.70
2022-11-30T19:21:52.752Z,21.13
2022-11-30T19:24:20.046Z,21.93
2022-11-30T19:26:47.345Z,21.43
2022-11-30T19:29:14.541Z,22.87
2022-11-30T19:31:41.782Z,26.30
2022-11-30T19:34:12.476Z,21.40
2022-11-30T19:36:40.945Z,24.73
2022-11-30T19:39:10.070Z,25.63
2022-11-30T19:41:37.262Z,26.03
2022-11-30T19:44:04.724Z,36.83
2022-11-30T19:46:32.483Z,35.23
2022-11-30T19:49:00.337Z,27.43
2022-11-30T19:51:28.119Z,26.43
2022-11-30T19:53:55.364Z,25.60
2022-11-30T19:56:24.484Z,25.30
2022-11-30T19:58:52.166Z,22.17
2022-11-30T20:01:21.131Z,25.00
2022-11-30T20:03:48.394Z,20.67
2022-11-30T20:06:15.639Z,26.67
2022-11-30T20:08:43.008Z,37.33
2022-11-30T20:11:11.047Z,22.17
2022-11-30T20:13:39.651Z,23.50
2022-11-30T20:16:07.339Z,29.27
2022-11-30T20:18:34.669Z,24.73
2022-11-30T20:21:10.086Z,21.77
2022-11-30T20:23:37.385Z,20.17
2022-11-30T20:26:11.776Z,30.30
2022-11-30T20:28:40.484Z,9.03
2022-11-30T20:31:07.771Z,34.07
2022-11-30T20:33:35.181Z,27.50
2022-11-30T20:36:02.584Z,23.63
2022-11-30T20:38:29.997Z,22.43
2022-11-30T20:40:57.460Z,25.70
2022-11-30T20:43:24.893Z,25.57
2022-11-30T20:45:53.773Z,22.80
2022-11-30T20:48:21.152Z,24.20
2022-11-30T20:51:14.002Z,21.17
2022-11-30T20:53:35.775Z,22.10
2022-11-30T20:56:03.035Z,24.20
2022-11-30T20:58:30.387Z,22.63
2022-11-30T21:00:59.547Z,18.17
2022-11-30T21:03:26.816Z,17.97
2022-11-30T21:05:54.095Z,20.20
2022-11-30T21:08:21.366Z,11.77
2022-11-30T21:10:48.698Z,18.13
2022-11-30T21:13:16.140Z,22.47
2022-11-30T21:15:43.383Z,24.23
2022-11-30T21:18:11.967Z,28.07
2022-11-30T21:20:39.258Z,27.67
2022-11-30T21:23:06.460Z,24.40
2022-11-30T21:25:35.315Z,25.10
2022-11-30T21:28:02.559Z,28.53
2022-11-30T21:30:29.874Z,24.90
2022-11-30T21:32:57.173Z,21.80
2022-11-30T21:35:25.932Z,24.63
2022-11-30T21:37:53.117Z,21.37
2022-11-30T21:40:20.324Z,22.07
2022-11-30T21:42:47.580Z,21.23
2022-11-30T21:45:14.914Z,17.70
2022-11-30T21:47:42.147Z,21.20
2022-11-30T21:50:09.882Z,23.83
2022-11-30T21:52:38.960Z,27.60
2022-11-30T21:55:06.938Z,24.73
2022-11-30T21:57:34.147Z,31.03
2022-11-30T22:00:01.426Z,32.97
2022-11-30T22:02:28.817Z,35.27
2022-11-30T22:04:56.102Z,51.27
2022-11-30T22:07:23.465Z,39.60
2022-11-30T22:09:52.100Z,39.10
2022-11-30T22:12:19.416Z,29.17
2022-11-30T22:14:46.649Z,23.00
2022-11-30T22:17:13.954Z,24.40
2022-11-30T22:19:41.139Z,26.97
2022-11-30T22:22:08.378Z,24.27
2022-11-30T22:24:35.604Z,24.53
2022-11-30T22:27:04.340Z,31.63
2022-11-30T22:29:31.639Z,28.33
2022-11-30T22:31:58.853Z,24.83
2022-11-30T22:34:26.231Z,24.67
2022-11-30T22:36:53.514Z,24.23
2022-11-30T22:39:21.762Z,23.27
2022-11-30T22:41:55.072Z,23.37
2022-11-30T22:44:25.185Z,23.43
2022-11-30T22:46:52.524Z,21.07
2022-11-30T22:49:21.499Z,24.43
2022-11-30T22:51:49.707Z,24.63
2022-11-30T22:54:17.696Z,25.73
2022-11-30T22:56:44.978Z,22.93
2022-11-30T22:59:13.150Z,24.90
2022-11-30T23:01:43.037Z,22.40
2022-11-30T23:04:11.573Z,25.17
2022-11-30T23:06:40.026Z,20.60
2022-11-30T23:09:08.317Z,21.03
2022-11-30T23:11:35.589Z,20.87
2022-11-30T23:14:02.850Z,21.93
2022-11-30T23:16:30.198Z,23.90
2022-11-30T23:18:59.035Z,24.13
2022-11-30T23:21:27.132Z,22.90
2022-11-30T23:23:55.567Z,21.37
2022-11-30T23:26:23.550Z,18.93
2022-11-30T23:28:52.068Z,19.60
2022-11-30T23:31:32.233Z,22.47
2022-11-30T23:34:03.613Z,23.13
2022-11-30T23:36:30.937Z,22.67
2022-11-30T23:38:59.279Z,19.67
2022-11-30T23:41:26.758Z,21.73
2022-11-30T23:43:54.064Z,23.30
2022-11-30T23:46:21.858Z,18.43
2022-11-30T23:48:49.166Z,20.83
2022-11-30T23:51:18.116Z,24.67
2022-11-30T23:53:45.398Z,22.90
2022-11-30T23:56:32.024Z,22.10
